Los Angeles, CA (90089)

11:46 AM PST on February 06, 2016 (GMT -0800)
Natural History Museum | | Change Station
CLOSE
Current Station
Personal Weather Station
Location: Los Angeles, CA
Elevation: 207 ft
Nearby Weather Stations
Active Advisory: Wind Advisory Active Notice: Public Information Statement

Elev 207 ft 34.02 °N, 118.29 °W | Updated 25 seconds ago

Clear
Clear
75.8 °F
Feels Like 76 °F
N
0.0
Wind Variable Wind from ESE
Gusts 2.0 mph

Today
High -- | Low -- °F
--% Chance of Precip.
Yesterday
High -- | Low -- °F
Precip. -- in
Pressure 30.26 in
Visibility 10.0 miles
Clouds Clear
Heat Index 76 °F
Dew Point 32 °F
Humidity 20%
Rainfall 0.00 in
Snow Depth Not available.
6:46 AM 5:28 PM
Waning Crescent, 4% visible
METAR KCQT 061847Z AUTO 00000KT 10SM CLR 22/M06 A3026 RMK AO2 SLP247 T02171056
Pressure 30.26 in
Visibility 10.0 miles
Clouds Clear
Heat Index 76 °F
Dew Point 32 °F
Humidity 20%
Rainfall 0.00 in
Snow Depth Not available.
6:46 AM 5:28 PM
Waning Crescent, 4% visible
METAR KCQT 061847Z AUTO 00000KT 10SM CLR 22/M06 A3026 RMK AO2 SLP247 T02171056

10-Day Weather Forecast

Almanac

Astronomy

Feb. 06, 2016 Rise Set
Actual Time
Civil Twilight
Nautical Twilight
Astronomical Twilight
Moon
Length of Visible Light
Length of Day
Tomorrow will be .
, % of the Moon is Illuminated

Today's Extremes

State Highs State Lows

Community

WunderPhotos

Upload Photos

1,891,037 photos uploaded!

WunderBlog® & News

Nearby

Air Quality

  Air Quality AQ Index Pollutant
Not available.

Snow Depth

Station Depth Elevation

Earthquake Activity

City Distance Mag. Time & Date
Minimum magnitude displayed is 2.5.

Coastal Water Temperatures

Place Temperature

Stations

Nearby Weather Stations

Station Location Temp. Windchill Dew Point Humidity Wind Precip. Elev Updated Type
                   

Watches & Warnings

Wind Advisory
Issued: 3:02 AM PST Feb. 6, 2016 – National Weather Service

... Wind Advisory remains in effect until 2 PM PST this
afternoon...

* winds... areas of north to northeast 15 to 25 mph with local
gusts to 35 mph are expected below passes and canyons from
Malibu to the Hollywood Hills.

* Impacts... gusty winds will make driving difficult... especially
for drivers of high profile vehicles.

Precautionary/preparedness actions...

When driving... use extra caution. Be prepared for sudden gusty
cross winds.



Asr